createdAt,value
2018-07-25T00:00:34.797Z,46.11
2018-07-25T00:01:34.755Z,45.52
2018-07-25T00:02:34.814Z,45.62
2018-07-25T00:03:34.675Z,45.62
2018-07-25T00:04:34.681Z,45.91
2018-07-25T00:05:34.590Z,45.91
2018-07-25T00:06:34.549Z,45.52
2018-07-25T00:07:34.506Z,45.62
2018-07-25T00:08:34.465Z,45.42
2018-07-25T00:09:34.424Z,45.62
2018-07-25T00:10:34.383Z,45.62
2018-07-25T00:11:34.341Z,45.81
2018-07-25T00:12:34.300Z,45.81
2018-07-25T00:13:34.258Z,46.11
2018-07-25T00:14:34.218Z,46.30
2018-07-25T00:15:34.175Z,46.30
2018-07-25T00:16:34.134Z,46.47
2018-07-25T00:17:34.095Z,46.08
2018-07-25T00:18:34.052Z,46.37
2018-07-25T00:19:34.010Z,46.18
2018-07-25T00:20:33.968Z,46.28
2018-07-25T00:21:33.932Z,46.47
2018-07-25T00:22:33.889Z,46.28
2018-07-25T00:23:33.844Z,46.28
2018-07-25T00:24:33.802Z,46.47
2018-07-25T00:25:33.766Z,46.57
2018-07-25T00:26:33.720Z,46.96
2018-07-25T00:27:33.685Z,46.86
2018-07-25T00:28:33.641Z,46.96
2018-07-25T00:29:33.596Z,46.77
2018-07-25T00:30:33.557Z,47.15
2018-07-25T00:31:33.512Z,47.25
2018-07-25T00:32:33.471Z,46.96
2018-07-25T00:33:33.431Z,47.15
2018-07-25T00:34:33.389Z,47.03
2018-07-25T00:35:33.347Z,47.32
2018-07-25T00:36:33.305Z,47.32
2018-07-25T00:37:33.270Z,47.23
2018-07-25T00:38:33.222Z,47.23
2018-07-25T00:39:33.180Z,47.25
2018-07-25T00:40:33.139Z,47.25
2018-07-25T00:41:33.098Z,47.15
2018-07-25T00:42:33.057Z,47.15
2018-07-25T00:43:33.014Z,47.15
2018-07-25T00:44:32.973Z,47.34
2018-07-25T00:45:32.932Z,47.05
2018-07-25T00:46:32.890Z,47.15
2018-07-25T00:47:32.848Z,46.86
2018-07-25T00:48:32.807Z,46.86
2018-07-25T00:49:32.766Z,46.77
2018-07-25T00:50:32.724Z,46.86
2018-07-25T00:51:32.684Z,46.86
2018-07-25T00:52:32.642Z,46.57
2018-07-25T00:53:32.603Z,46.69
2018-07-25T00:54:32.558Z,46.69
2018-07-25T00:55:32.517Z,46.59
2018-07-25T00:56:32.475Z,46.59
2018-07-25T00:57:32.433Z,46.69
2018-07-25T00:58:32.393Z,46.40
2018-07-25T00:59:32.350Z,46.50
2018-07-25T01:00:32.308Z,46.40
2018-07-25T01:01:32.268Z,46.40
2018-07-25T01:02:32.229Z,46.11
2018-07-25T01:03:32.183Z,46.20
2018-07-25T01:04:32.142Z,46.30
2018-07-25T01:05:32.101Z,46.20
2018-07-25T01:06:32.059Z,46.50
2018-07-25T01:07:32.017Z,46.30
2018-07-25T01:08:31.976Z,46.20
2018-07-25T01:09:31.934Z,46.01
2018-07-25T01:10:31.893Z,46.20
2018-07-25T01:11:31.850Z,46.11
2018-07-25T01:12:31.813Z,46.11
2018-07-25T01:13:31.768Z,46.11
2018-07-25T01:14:31.725Z,46.11
2018-07-25T01:15:31.684Z,46.11
2018-07-25T01:16:31.643Z,46.11
2018-07-25T01:17:31.651Z,46.40
2018-07-25T01:18:31.560Z,46.20
2018-07-25T01:19:31.517Z,46.20
2018-07-25T01:20:31.476Z,46.40
2018-07-25T01:21:31.435Z,46.40
2018-07-25T01:22:31.394Z,46.50
2018-07-25T01:23:31.351Z,46.40
2018-07-25T01:24:31.309Z,46.50
2018-07-25T01:25:31.268Z,46.40
2018-07-25T01:26:31.227Z,46.11
2018-07-25T01:27:31.184Z,46.59
2018-07-25T01:28:31.143Z,46.69
2018-07-25T01:29:31.102Z,47.05
2018-07-25T01:30:31.060Z,46.77
2018-07-25T01:31:31.018Z,46.86
2018-07-25T01:32:30.977Z,47.05
2018-07-25T01:33:30.935Z,47.05
2018-07-25T01:34:30.894Z,47.25
2018-07-25T01:35:30.859Z,47.25
2018-07-25T01:36:30.810Z,47.15
2018-07-25T01:37:30.769Z,46.96
2018-07-25T01:38:30.730Z,46.98
2018-07-25T01:39:30.685Z,46.77
2018-07-25T01:40:30.643Z,47.08
2018-07-25T01:41:30.602Z,47.17
2018-07-25T01:42:30.561Z,47.17
2018-07-25T01:43:30.518Z,47.37
2018-07-25T01:44:30.477Z,47.34
2018-07-25T01:45:30.435Z,47.34
2018-07-25T01:46:30.394Z,47.34
2018-07-25T01:47:30.359Z,47.34
2018-07-25T01:48:30.310Z,47.34
2018-07-25T01:49:30.269Z,47.34
2018-07-25T01:50:30.226Z,47.15
2018-07-25T01:51:30.188Z,47.44
2018-07-25T01:52:30.143Z,47.25
2018-07-25T01:53:30.102Z,47.25
2018-07-25T01:54:30.063Z,47.74
2018-07-25T01:55:30.022Z,47.05
2018-07-25T01:56:29.977Z,47.15
2018-07-25T01:57:29.935Z,48.22
2018-07-25T01:58:29.894Z,47.81
2018-07-25T01:59:29.855Z,47.83
2018-07-25T02:00:29.810Z,48.03
2018-07-25T02:01:29.793Z,47.93
2018-07-25T02:02:29.729Z,47.81
2018-07-25T02:03:29.685Z,47.83
2018-07-25T02:04:29.643Z,47.71
2018-07-25T02:05:29.601Z,47.61
2018-07-25T02:06:29.564Z,47.74
2018-07-25T02:07:29.517Z,47.83
2018-07-25T02:08:29.476Z,47.42
2018-07-25T02:09:29.435Z,47.81
2018-07-25T02:10:29.393Z,47.81
2018-07-25T02:11:29.351Z,48.00
2018-07-25T02:12:29.309Z,47.81
2018-07-25T02:13:29.267Z,47.91
2018-07-25T02:14:29.227Z,47.81
2018-07-25T02:15:29.183Z,47.91
2018-07-25T02:16:29.142Z,47.81
2018-07-25T02:17:29.100Z,47.91
2018-07-25T02:18:29.059Z,48.49
2018-07-25T02:19:29.037Z,48.78
2018-07-25T02:20:28.975Z,49.17
2018-07-25T02:21:28.934Z,49.17
2018-07-25T02:22:28.892Z,48.49
2018-07-25T02:23:28.851Z,48.68
2018-07-25T02:24:28.808Z,48.58
2018-07-25T02:25:28.767Z,48.58
2018-07-25T02:26:28.725Z,48.58
2018-07-25T02:27:28.682Z,48.58
2018-07-25T02:28:28.641Z,48.78
2018-07-25T02:29:28.600Z,48.68
2018-07-25T02:30:28.558Z,48.68
2018-07-25T02:31:28.516Z,49.17
2018-07-25T02:32:28.474Z,49.27
2018-07-25T02:33:28.433Z,48.97
2018-07-25T02:34:28.393Z,48.97
2018-07-25T02:35:28.351Z,48.30
2018-07-25T02:36:28.307Z,48.49
2018-07-25T02:37:28.265Z,48.39
2018-07-25T02:38:28.224Z,48.68
2018-07-25T02:39:28.186Z,48.78
2018-07-25T02:40:28.150Z,48.68
2018-07-25T02:41:28.099Z,48.68
2018-07-25T02:42:28.114Z,48.68
2018-07-25T02:43:28.014Z,48.97
2018-07-25T02:44:27.991Z,49.27
2018-07-25T02:45:27.932Z,48.68
2018-07-25T02:46:27.890Z,48.78
2018-07-25T02:47:27.847Z,48.88
2018-07-25T02:48:27.856Z,48.78
2018-07-25T02:49:27.765Z,48.58
2018-07-25T02:50:27.722Z,48.68
2018-07-25T02:51:27.687Z,48.78
2018-07-25T02:52:27.638Z,48.68
2018-07-25T02:53:27.598Z,48.68
2018-07-25T02:54:27.556Z,48.68
2018-07-25T02:55:27.512Z,48.68
2018-07-25T02:56:27.471Z,48.68
2018-07-25T02:57:27.436Z,48.68
2018-07-25T02:58:27.388Z,48.78
2018-07-25T02:59:27.348Z,48.78
2018-07-25T03:00:27.304Z,48.58
2018-07-25T03:01:27.262Z,48.97
2018-07-25T03:02:27.220Z,49.07
2018-07-25T03:03:27.178Z,48.68
2018-07-25T03:04:27.136Z,48.88
2018-07-25T03:05:27.098Z,48.97
2018-07-25T03:06:27.053Z,48.88
2018-07-25T03:07:27.013Z,48.68
2018-07-25T03:08:26.968Z,48.78
2018-07-25T03:09:26.927Z,48.78
2018-07-25T03:10:26.886Z,48.58
2018-07-25T03:11:26.843Z,48.88
2018-07-25T03:12:26.801Z,49.37
2018-07-25T03:13:26.761Z,49.56
2018-07-25T03:14:26.718Z,50.04
2018-07-25T03:15:26.675Z,49.92
2018-07-25T03:16:26.633Z,50.12
2018-07-25T03:17:26.592Z,50.24
2018-07-25T03:18:26.552Z,49.63
2018-07-25T03:19:26.508Z,49.76
2018-07-25T03:20:26.466Z,49.54
2018-07-25T03:21:26.426Z,49.56
2018-07-25T03:22:26.384Z,49.66
2018-07-25T03:23:26.340Z,49.56
2018-07-25T03:24:26.302Z,50.24
2018-07-25T03:25:26.257Z,50.02
2018-07-25T03:26:26.217Z,50.12
2018-07-25T03:27:26.173Z,50.21
2018-07-25T03:28:26.133Z,49.66
2018-07-25T03:29:26.089Z,49.95
2018-07-25T03:30:26.049Z,50.21
2018-07-25T03:31:26.069Z,50.12
2018-07-25T03:32:25.963Z,50.12
2018-07-25T03:33:25.924Z,50.12
2018-07-25T03:34:25.880Z,50.02
2018-07-25T03:35:25.837Z,50.31
2018-07-25T03:36:25.795Z,50.34
2018-07-25T03:37:25.815Z,50.04
2018-07-25T03:38:25.712Z,49.66
2018-07-25T03:39:25.669Z,49.85
2018-07-25T03:40:25.627Z,50.12
2018-07-25T03:41:25.586Z,50.02
2018-07-25T03:42:25.544Z,50.21
2018-07-25T03:43:25.501Z,50.21
2018-07-25T03:44:25.459Z,50.21
2018-07-25T03:45:25.418Z,50.51
2018-07-25T03:46:25.376Z,50.70
2018-07-25T03:47:25.334Z,50.60
2018-07-25T03:48:25.292Z,50.70
2018-07-25T03:49:25.272Z,50.70
2018-07-25T03:50:25.211Z,50.80
2018-07-25T03:51:25.166Z,50.51
2018-07-25T03:52:25.125Z,50.51
2018-07-25T03:53:25.082Z,50.68
2018-07-25T03:54:25.041Z,50.48
2018-07-25T03:55:24.999Z,50.31
2018-07-25T03:56:24.957Z,50.60
2018-07-25T03:57:24.933Z,50.41
2018-07-25T03:58:24.874Z,50.41
2018-07-25T03:59:24.831Z,50.68
2018-07-25T04:00:24.788Z,50.87
2018-07-25T04:01:24.752Z,50.87
2018-07-25T04:02:24.705Z,50.87
2018-07-25T04:03:24.664Z,50.87
2018-07-25T04:04:24.621Z,50.96
2018-07-25T04:05:24.579Z,50.60
2018-07-25T04:06:24.539Z,50.70
2018-07-25T04:07:24.494Z,50.80
2018-07-25T04:08:24.510Z,50.89
2018-07-25T04:09:24.411Z,50.80
2018-07-25T04:10:24.374Z,50.70
2018-07-25T04:11:24.327Z,50.89
2018-07-25T04:12:24.285Z,50.89
2018-07-25T04:13:24.244Z,50.41
2018-07-25T04:14:24.202Z,50.21
2018-07-25T04:15:24.160Z,50.41
2018-07-25T04:16:24.121Z,50.31
2018-07-25T04:17:24.076Z,50.60
2018-07-25T04:18:24.035Z,50.51
2018-07-25T04:19:23.996Z,50.51
2018-07-25T04:20:23.950Z,50.51
2018-07-25T04:21:23.909Z,50.51
2018-07-25T04:22:23.867Z,50.89
2018-07-25T04:23:23.824Z,50.89
2018-07-25T04:24:23.783Z,51.09
2018-07-25T04:25:23.743Z,51.18
2018-07-25T04:26:23.699Z,51.38
2018-07-25T04:27:23.656Z,51.09
2018-07-25T04:28:23.615Z,51.09
2018-07-25T04:29:23.573Z,51.09
2018-07-25T04:30:23.533Z,51.09
2018-07-25T04:31:23.488Z,50.99
2018-07-25T04:32:23.446Z,50.89
2018-07-25T04:33:23.405Z,50.89
2018-07-25T04:34:23.363Z,50.70
2018-07-25T04:35:23.320Z,50.41
2018-07-25T04:36:23.279Z,50.70
2018-07-25T04:37:23.237Z,50.60
2018-07-25T04:38:23.195Z,50.60
2018-07-25T04:39:23.152Z,50.80
2018-07-25T04:40:23.111Z,50.70
2018-07-25T04:41:23.069Z,50.89
2018-07-25T04:42:23.030Z,50.99
2018-07-25T04:43:22.984Z,50.99
2018-07-25T04:44:22.945Z,51.18
2018-07-25T04:45:22.903Z,51.48
2018-07-25T04:46:23.022Z,50.99
2018-07-25T04:47:22.815Z,50.89
2018-07-25T04:48:22.775Z,51.38
2018-07-25T04:49:22.732Z,51.38
2018-07-25T04:50:22.691Z,51.28
2018-07-25T04:51:22.648Z,51.18
2018-07-25T04:52:22.606Z,50.89
2018-07-25T04:53:22.565Z,50.89
2018-07-25T04:54:22.523Z,50.89
2018-07-25T04:55:22.480Z,50.89
2018-07-25T04:56:22.438Z,50.89
2018-07-25T04:57:22.397Z,50.80
2018-07-25T04:58:22.360Z,50.53
2018-07-25T04:59:22.313Z,50.43
2018-07-25T05:00:22.270Z,50.63
2018-07-25T05:01:22.229Z,50.43
2018-07-25T05:02:22.187Z,49.95
2018-07-25T05:03:22.144Z,49.49
2018-07-25T05:04:22.102Z,49.19
2018-07-25T05:05:22.062Z,49.00
2018-07-25T05:06:22.025Z,48.83
2018-07-25T05:07:21.980Z,48.93
2018-07-25T05:08:21.934Z,48.46
2018-07-25T05:09:21.895Z,47.78
2018-07-25T05:10:21.851Z,48.07
2018-07-25T05:11:21.808Z,47.59
2018-07-25T05:12:21.766Z,47.52
2018-07-25T05:13:21.725Z,47.03
2018-07-25T05:14:21.683Z,46.83
2018-07-25T05:15:21.640Z,46.83
2018-07-25T05:16:21.607Z,46.93
2018-07-25T05:17:21.558Z,46.76
2018-07-25T05:18:21.515Z,46.47
2018-07-25T05:19:21.473Z,46.20
2018-07-25T05:20:21.431Z,45.90
2018-07-25T05:21:21.390Z,46.00
2018-07-25T05:22:21.348Z,45.90
2018-07-25T05:23:21.342Z,46.10
2018-07-25T05:24:21.271Z,45.88
2018-07-25T05:25:21.223Z,45.88
2018-07-25T05:26:21.181Z,45.81
2018-07-25T05:27:21.139Z,45.81
2018-07-25T05:28:21.098Z,45.81
2018-07-25T05:29:21.056Z,46.00
2018-07-25T05:30:21.018Z,45.68
2018-07-25T05:31:20.971Z,45.88
2018-07-25T05:32:20.939Z,46.27
2018-07-25T05:33:20.889Z,46.08
2018-07-25T05:34:20.849Z,45.81
2018-07-25T05:35:20.809Z,45.42
2018-07-25T05:36:20.765Z,44.85
2018-07-25T05:37:20.724Z,44.29
2018-07-25T05:38:20.682Z,43.99
2018-07-25T05:39:20.645Z,43.90
2018-07-25T05:40:20.598Z,43.63
2018-07-25T05:41:20.557Z,43.14
2018-07-25T05:42:20.518Z,42.77
2018-07-25T05:43:20.474Z,42.68
2018-07-25T05:44:20.432Z,42.38
2018-07-25T05:45:20.392Z,41.82
2018-07-25T05:46:20.400Z,41.82
2018-07-25T05:47:20.308Z,41.62
2018-07-25T05:48:20.267Z,41.44
2018-07-25T05:49:20.233Z,41.35
2018-07-25T05:50:20.184Z,41.05
2018-07-25T05:51:20.143Z,40.76
2018-07-25T05:52:20.101Z,40.76
2018-07-25T05:53:20.072Z,40.48
2018-07-25T05:54:20.022Z,40.09
2018-07-25T05:55:19.977Z,40.09
2018-07-25T05:56:19.937Z,40.00
2018-07-25T05:57:19.895Z,39.82
2018-07-25T05:58:19.854Z,39.53
2018-07-25T05:59:19.812Z,39.62
2018-07-25T06:00:19.771Z,39.33
2018-07-25T06:01:19.730Z,39.23
2018-07-25T06:02:19.691Z,39.14
2018-07-25T06:03:19.835Z,39.04
2018-07-25T06:04:19.644Z,38.96
2018-07-25T06:05:19.566Z,38.96
2018-07-25T06:06:19.525Z,38.57
2018-07-25T06:07:19.484Z,38.76
2018-07-25T06:08:19.443Z,38.86
2018-07-25T06:09:19.403Z,38.57
2018-07-25T06:10:19.362Z,38.67
2018-07-25T06:11:19.320Z,38.18
2018-07-25T06:12:19.279Z,38.18
2018-07-25T06:13:19.242Z,37.98
2018-07-25T06:14:19.249Z,38.28
2018-07-25T06:15:19.156Z,37.79
2018-07-25T06:16:19.116Z,37.81
2018-07-25T06:17:19.074Z,37.90
2018-07-25T06:18:19.034Z,37.81
2018-07-25T06:19:18.993Z,37.90
2018-07-25T06:20:18.959Z,38.00
2018-07-25T06:21:18.914Z,37.81
2018-07-25T06:22:18.873Z,37.61
2018-07-25T06:23:18.830Z,38.20
2018-07-25T06:24:18.789Z,37.90
2018-07-25T06:25:18.749Z,37.81
2018-07-25T06:26:18.708Z,38.00
2018-07-25T06:27:18.667Z,37.41
2018-07-25T06:28:18.626Z,37.90
2018-07-25T06:29:18.587Z,37.92
2018-07-25T06:30:18.545Z,37.33
2018-07-25T06:31:18.522Z,37.43
2018-07-25T06:32:18.467Z,37.23
2018-07-25T06:33:18.423Z,37.13
2018-07-25T06:34:18.383Z,37.13
2018-07-25T06:35:18.341Z,37.33
2018-07-25T06:36:18.301Z,37.23
2018-07-25T06:37:18.261Z,36.94
2018-07-25T06:38:18.221Z,36.84
2018-07-25T06:39:18.179Z,37.05
2018-07-25T06:40:18.139Z,37.04
2018-07-25T06:41:18.098Z,37.05
2018-07-25T06:42:18.058Z,37.04
2018-07-25T06:43:18.027Z,37.13
2018-07-25T06:44:17.977Z,37.05
2018-07-25T06:45:17.936Z,37.05
2018-07-25T06:46:17.947Z,36.57
2018-07-25T06:47:17.855Z,36.76
2018-07-25T06:48:17.815Z,36.66
2018-07-25T06:49:17.774Z,36.96
2018-07-25T06:50:17.734Z,36.47
2018-07-25T06:51:17.693Z,36.49
2018-07-25T06:52:17.653Z,36.68
2018-07-25T06:53:17.612Z,36.39
2018-07-25T06:54:17.572Z,36.29
2018-07-25T06:55:17.534Z,36.29
2018-07-25T06:56:17.494Z,35.99
2018-07-25T06:57:17.477Z,35.52
2018-07-25T06:58:17.417Z,35.62
2018-07-25T06:59:17.370Z,35.72
2018-07-25T07:00:17.328Z,35.72
2018-07-25T07:01:17.292Z,35.42
2018-07-25T07:02:17.250Z,35.23
2018-07-25T07:03:17.212Z,35.14
2018-07-25T07:04:17.173Z,34.95
2018-07-25T07:05:17.128Z,34.75
2018-07-25T07:06:17.089Z,34.67
2018-07-25T07:07:17.048Z,34.58
2018-07-25T07:08:17.008Z,34.18
2018-07-25T07:09:16.968Z,33.80
2018-07-25T07:10:16.931Z,34.00
2018-07-25T07:11:16.887Z,33.33
2018-07-25T07:12:16.848Z,33.03
2018-07-25T07:13:16.807Z,32.65
2018-07-25T07:14:16.776Z,32.46
2018-07-25T07:15:16.741Z,32.76
2018-07-25T07:16:16.696Z,32.08
2018-07-25T07:17:16.649Z,31.59
2018-07-25T07:18:16.607Z,31.41
2018-07-25T07:19:16.566Z,31.21
2018-07-25T07:20:16.526Z,31.03
2018-07-25T07:21:16.490Z,30.24
2018-07-25T07:22:16.446Z,30.75
2018-07-25T07:23:16.406Z,30.65
2018-07-25T07:24:16.368Z,30.35
2018-07-25T07:25:16.326Z,29.58
2018-07-25T07:26:16.287Z,29.19
2018-07-25T07:27:16.245Z,29.20
2018-07-25T07:28:16.207Z,28.91
2018-07-25T07:29:16.167Z,29.11
2018-07-25T07:30:16.129Z,29.13
2018-07-25T07:31:16.096Z,28.83
2018-07-25T07:32:16.047Z,28.44
2018-07-25T07:33:16.007Z,28.34
2018-07-25T07:34:15.967Z,27.96
2018-07-25T07:35:15.926Z,27.66
2018-07-25T07:36:15.887Z,27.87
2018-07-25T07:37:15.922Z,27.38
2018-07-25T07:38:15.809Z,27.08
2018-07-25T07:39:15.767Z,26.80
2018-07-25T07:40:15.730Z,27.00
2018-07-25T07:41:15.688Z,26.80
2018-07-25T07:42:15.649Z,26.70
2018-07-25T07:43:15.608Z,26.32
2018-07-25T07:44:15.609Z,26.51
2018-07-25T07:45:15.548Z,26.02
2018-07-25T07:46:15.494Z,26.23
2018-07-25T07:47:15.449Z,26.13
2018-07-25T07:48:15.414Z,25.15
2018-07-25T07:49:15.371Z,25.45
2018-07-25T07:50:15.331Z,25.45
2018-07-25T07:51:15.291Z,25.37
2018-07-25T07:52:15.251Z,25.46
2018-07-25T07:53:15.213Z,25.07
2018-07-25T07:54:15.177Z,25.08
2018-07-25T07:55:15.133Z,24.38
2018-07-25T07:56:15.094Z,24.58
2018-07-25T07:57:15.055Z,24.10
2018-07-25T07:58:15.116Z,24.20
2018-07-25T07:59:15.018Z,24.60
2018-07-25T08:00:14.942Z,23.90
2018-07-25T08:01:14.898Z,23.91
2018-07-25T08:02:14.858Z,23.52
2018-07-25T08:03:14.819Z,23.91
2018-07-25T08:04:14.779Z,23.72
2018-07-25T08:05:14.741Z,23.13
2018-07-25T08:06:14.702Z,23.03
2018-07-25T08:07:14.662Z,23.13
2018-07-25T08:08:14.623Z,23.43
2018-07-25T08:09:14.585Z,23.24
2018-07-25T08:10:14.545Z,22.66
2018-07-25T08:11:14.506Z,22.74
2018-07-25T08:12:14.468Z,22.55
2018-07-25T08:13:14.434Z,22.55
2018-07-25T08:14:14.390Z,22.47
2018-07-25T08:15:14.350Z,22.27
2018-07-25T08:16:14.312Z,22.47
2018-07-25T08:17:14.273Z,22.27
2018-07-25T08:18:14.241Z,21.67
2018-07-25T08:19:14.195Z,21.68
2018-07-25T08:20:14.157Z,21.78
2018-07-25T08:21:14.208Z,21.38
2018-07-25T08:22:14.083Z,21.39
2018-07-25T08:23:14.047Z,21.79
2018-07-25T08:24:14.003Z,21.49
2018-07-25T08:25:13.967Z,21.30
2018-07-25T08:26:13.925Z,21.00
2018-07-25T08:27:13.886Z,21.09
2018-07-25T08:28:13.848Z,21.19
2018-07-25T08:29:13.810Z,21.19
2018-07-25T08:30:13.772Z,21.30
2018-07-25T08:31:13.733Z,21.39
2018-07-25T08:32:13.695Z,21.41
2018-07-25T08:33:13.657Z,21.41
2018-07-25T08:34:13.621Z,21.20
2018-07-25T08:35:13.580Z,20.79
2018-07-25T08:36:13.547Z,20.89
2018-07-25T08:37:13.504Z,21.20
2018-07-25T08:38:13.468Z,21.39
2018-07-25T08:39:13.427Z,21.19
2018-07-25T08:40:13.390Z,21.19
2018-07-25T08:41:13.383Z,21.30
2018-07-25T08:42:13.314Z,21.30
2018-07-25T08:43:13.276Z,21.30
2018-07-25T08:44:13.241Z,21.08
2018-07-25T08:45:13.200Z,21.86
2018-07-25T08:46:13.163Z,22.73
2018-07-25T08:47:13.130Z,23.69
2018-07-25T08:48:13.088Z,24.07
2018-07-25T08:49:13.050Z,24.16
2018-07-25T08:50:13.014Z,24.07
2018-07-25T08:51:12.975Z,24.26
2018-07-25T08:52:12.935Z,24.18
2018-07-25T08:53:12.897Z,23.69
2018-07-25T08:54:12.862Z,23.79
2018-07-25T08:55:12.824Z,23.49
2018-07-25T08:56:12.784Z,24.16
2018-07-25T08:57:12.747Z,25.33
2018-07-25T08:58:12.709Z,25.21
2018-07-25T08:59:12.680Z,25.61
2018-07-25T09:00:12.634Z,25.43
2018-07-25T09:01:12.595Z,24.65
2018-07-25T09:02:12.557Z,24.36
2018-07-25T09:03:12.519Z,23.58
2018-07-25T09:04:12.481Z,23.69
2018-07-25T09:05:12.442Z,23.59
2018-07-25T09:06:12.406Z,23.49
2018-07-25T09:07:12.368Z,23.11
2018-07-25T09:08:12.330Z,23.12
2018-07-25T09:09:12.294Z,23.22
2018-07-25T09:10:12.256Z,23.02
2018-07-25T09:11:12.232Z,22.92
2018-07-25T09:12:12.187Z,22.82
2018-07-25T09:13:12.144Z,22.72
2018-07-25T09:14:12.107Z,22.62
2018-07-25T09:15:12.069Z,22.92
2018-07-25T09:16:12.032Z,23.02
2018-07-25T09:17:11.996Z,22.82
2018-07-25T09:18:11.962Z,23.01
2018-07-25T09:19:11.920Z,23.69
2018-07-25T09:20:11.883Z,23.78
2018-07-25T09:21:11.846Z,23.78
2018-07-25T09:22:11.809Z,23.88
2018-07-25T09:23:11.771Z,24.05
2018-07-25T09:24:11.734Z,25.32
2018-07-25T09:25:11.832Z,25.98
2018-07-25T09:26:11.660Z,26.84
2018-07-25T09:27:11.622Z,27.91
2018-07-25T09:28:11.585Z,27.99
2018-07-25T09:29:11.548Z,28.09
2018-07-25T09:30:11.510Z,27.81
2018-07-25T09:31:11.476Z,27.52
2018-07-25T09:32:11.435Z,27.23
2018-07-25T09:33:11.397Z,27.53
2018-07-25T09:34:11.450Z,27.24
2018-07-25T09:35:11.322Z,27.52
2018-07-25T09:36:11.284Z,27.42
2018-07-25T09:37:11.248Z,27.42
2018-07-25T09:38:11.210Z,27.82
2018-07-25T09:39:11.172Z,27.61
2018-07-25T09:40:11.135Z,27.91
2018-07-25T09:41:11.098Z,28.10
2018-07-25T09:42:11.060Z,28.38
2018-07-25T09:43:11.027Z,29.16
2018-07-25T09:44:10.985Z,29.24
2018-07-25T09:45:10.952Z,29.52
2018-07-25T09:46:10.911Z,30.31
2018-07-25T09:47:10.873Z,30.69
2018-07-25T09:48:10.835Z,30.97
2018-07-25T09:49:10.810Z,31.25
2018-07-25T09:50:10.761Z,31.53
2018-07-25T09:51:10.722Z,32.12
2018-07-25T09:52:10.685Z,32.59
2018-07-25T09:53:10.779Z,33.08
2018-07-25T09:54:10.613Z,33.26
2018-07-25T09:55:10.572Z,33.17
2018-07-25T09:56:10.534Z,33.64
2018-07-25T09:57:10.497Z,34.23
2018-07-25T09:58:10.460Z,34.11
2018-07-25T09:59:10.446Z,34.31
2018-07-25T10:00:10.388Z,34.70
2018-07-25T10:01:10.370Z,34.98
2018-07-25T10:02:10.308Z,35.17
2018-07-25T10:03:10.292Z,35.37
2018-07-25T10:04:10.230Z,35.37
2018-07-25T10:05:10.192Z,35.55
2018-07-25T10:06:10.184Z,35.55
2018-07-25T10:07:10.170Z,35.45
2018-07-25T10:08:10.077Z,36.24
2018-07-25T10:09:10.041Z,36.32
2018-07-25T10:10:10.001Z,36.33
2018-07-25T10:11:09.981Z,36.41
2018-07-25T10:12:09.923Z,36.71
2018-07-25T10:13:09.885Z,36.51
2018-07-25T10:14:09.850Z,36.61
2018-07-25T10:15:09.868Z,36.71
2018-07-25T10:16:09.775Z,36.90
2018-07-25T10:17:09.730Z,37.00
2018-07-25T10:18:09.691Z,37.19
2018-07-25T10:19:09.652Z,37.00
2018-07-25T10:20:09.613Z,36.90
2018-07-25T10:21:09.575Z,36.80
2018-07-25T10:22:09.537Z,36.80
2018-07-25T10:23:09.496Z,36.88
2018-07-25T10:24:09.460Z,37.08
2018-07-25T10:25:09.419Z,37.18
2018-07-25T10:26:09.380Z,37.18
2018-07-25T10:27:09.430Z,37.57
2018-07-25T10:28:09.302Z,37.08
2018-07-25T10:29:09.276Z,37.27
2018-07-25T10:30:09.225Z,37.27
2018-07-25T10:31:09.185Z,37.77
2018-07-25T10:32:09.150Z,37.27
2018-07-25T10:33:09.108Z,37.47
2018-07-25T10:34:09.069Z,37.87
2018-07-25T10:35:09.031Z,37.67
2018-07-25T10:36:08.990Z,37.57
2018-07-25T10:37:08.951Z,37.96
2018-07-25T10:38:08.913Z,37.77
2018-07-25T10:39:08.953Z,37.96
2018-07-25T10:40:08.835Z,37.95
2018-07-25T10:41:08.796Z,37.67
2018-07-25T10:42:08.756Z,37.75
2018-07-25T10:43:08.717Z,38.14
2018-07-25T10:44:08.680Z,38.16
2018-07-25T10:45:08.639Z,38.04
2018-07-25T10:46:08.601Z,37.95
2018-07-25T10:47:08.560Z,37.75
2018-07-25T10:48:08.521Z,37.85
2018-07-25T10:49:08.482Z,37.95
2018-07-25T10:50:08.444Z,38.04
2018-07-25T10:51:08.403Z,38.14
2018-07-25T10:52:08.364Z,38.04
2018-07-25T10:53:08.328Z,38.24
2018-07-25T10:54:08.286Z,38.24
2018-07-25T10:55:08.247Z,38.24
2018-07-25T10:56:08.208Z,38.14
2018-07-25T10:57:08.169Z,38.24
2018-07-25T10:58:08.130Z,38.02
2018-07-25T10:59:08.090Z,38.43
2018-07-25T11:00:08.051Z,38.04
2018-07-25T11:01:08.012Z,38.14
2018-07-25T11:02:07.975Z,38.24
2018-07-25T11:03:07.933Z,38.43
2018-07-25T11:04:07.902Z,38.24
2018-07-25T11:05:07.855Z,38.24
2018-07-25T11:06:07.815Z,38.43
2018-07-25T11:07:07.776Z,38.24
2018-07-25T11:08:07.736Z,38.24
2018-07-25T11:09:07.698Z,38.24
2018-07-25T11:10:07.659Z,38.43
2018-07-25T11:11:07.621Z,38.24
2018-07-25T11:12:07.580Z,38.14
2018-07-25T11:13:07.541Z,38.14
2018-07-25T11:14:07.501Z,38.14
2018-07-25T11:15:07.462Z,38.53
2018-07-25T11:16:07.423Z,38.43
2018-07-25T11:17:07.384Z,38.24
2018-07-25T11:18:07.345Z,38.24
2018-07-25T11:19:07.305Z,38.04
2018-07-25T11:20:07.266Z,38.12
2018-07-25T11:21:07.234Z,38.61
2018-07-25T11:22:07.188Z,38.63
2018-07-25T11:23:07.206Z,38.51
2018-07-25T11:24:07.109Z,38.42
2018-07-25T11:25:07.070Z,38.71
2018-07-25T11:26:07.031Z,38.61
2018-07-25T11:27:06.990Z,38.61
2018-07-25T11:28:06.951Z,38.61
2018-07-25T11:29:06.912Z,38.71
2018-07-25T11:30:06.873Z,38.61
2018-07-25T11:31:06.835Z,38.71
2018-07-25T11:32:06.793Z,38.81
2018-07-25T11:33:06.858Z,38.81
2018-07-25T11:34:06.716Z,38.71
2018-07-25T11:35:06.675Z,38.71
2018-07-25T11:36:06.637Z,38.81
2018-07-25T11:37:06.597Z,39.00
2018-07-25T11:38:06.576Z,39.00
2018-07-25T11:39:06.518Z,38.90
2018-07-25T11:40:06.479Z,38.90
2018-07-25T11:41:06.440Z,38.90
2018-07-25T11:42:06.400Z,38.90
2018-07-25T11:43:06.360Z,38.71
2018-07-25T11:44:06.378Z,38.81
2018-07-25T11:45:06.282Z,38.90
2018-07-25T11:46:06.243Z,39.00
2018-07-25T11:47:06.202Z,38.81
2018-07-25T11:48:06.163Z,38.71
2018-07-25T11:49:06.226Z,38.81
2018-07-25T11:50:06.134Z,38.71
2018-07-25T11:51:06.045Z,38.90
2018-07-25T11:52:06.006Z,39.00
2018-07-25T11:53:05.970Z,39.00
2018-07-25T11:54:05.927Z,39.00
2018-07-25T11:55:05.887Z,39.10
2018-07-25T11:56:05.847Z,39.10
2018-07-25T11:57:05.808Z,38.90
2018-07-25T11:58:05.773Z,38.98
2018-07-25T11:59:05.729Z,38.89
2018-07-25T12:00:05.690Z,38.89
2018-07-25T12:01:05.665Z,38.90
2018-07-25T12:02:05.611Z,38.89
2018-07-25T12:03:05.571Z,38.89
2018-07-25T12:04:05.532Z,39.08
2018-07-25T12:05:05.492Z,39.29
2018-07-25T12:06:05.453Z,39.18
2018-07-25T12:07:05.414Z,39.08
2018-07-25T12:08:05.374Z,39.18
2018-07-25T12:09:05.335Z,39.08
2018-07-25T12:10:05.346Z,39.37
2018-07-25T12:11:05.255Z,39.28
2018-07-25T12:12:05.216Z,39.18
2018-07-25T12:13:05.268Z,39.08
2018-07-25T12:14:05.138Z,39.18
2018-07-25T12:15:05.097Z,39.18
2018-07-25T12:16:05.058Z,39.28
2018-07-25T12:17:05.019Z,39.28
2018-07-25T12:18:04.980Z,39.28
2018-07-25T12:19:04.939Z,39.08
2018-07-25T12:20:04.899Z,39.08
2018-07-25T12:21:04.860Z,39.18
2018-07-25T12:22:04.821Z,39.29
2018-07-25T12:23:04.834Z,39.18
2018-07-25T12:24:04.741Z,39.18
2018-07-25T12:25:04.702Z,39.08
2018-07-25T12:26:04.663Z,39.08
2018-07-25T12:27:04.632Z,39.18
2018-07-25T12:28:04.584Z,39.28
2018-07-25T12:29:04.545Z,39.18
2018-07-25T12:30:04.506Z,39.18
2018-07-25T12:31:04.466Z,39.28
2018-07-25T12:32:04.450Z,39.18
2018-07-25T12:33:04.396Z,38.98
2018-07-25T12:34:04.347Z,39.08
2018-07-25T12:35:04.308Z,39.08
2018-07-25T12:36:04.267Z,39.18
2018-07-25T12:37:04.227Z,39.08
2018-07-25T12:38:04.189Z,39.28
2018-07-25T12:39:04.156Z,39.18
2018-07-25T12:40:04.109Z,39.28
2018-07-25T12:41:04.070Z,39.37
2018-07-25T12:42:04.032Z,39.28
2018-07-25T12:43:03.991Z,39.37
2018-07-25T12:44:03.951Z,39.37
2018-07-25T12:45:03.912Z,39.28
2018-07-25T12:46:03.872Z,39.28
2018-07-25T12:47:03.832Z,39.28
2018-07-25T12:48:03.793Z,39.28
2018-07-25T12:49:03.754Z,39.28
2018-07-25T12:50:03.725Z,39.28
2018-07-25T12:51:03.673Z,39.28
2018-07-25T12:52:03.634Z,39.28